Alpha, Ohio
Current Conditions -  °F | °C
As of 5:58 AM on Saturday 25 Oct 2014 (Local Time) from KFFO Reporting Station
Clear Clear  
Wind Chill:   Ceiling: Unl
Heat Index:   Visibility: 10mi
Dew Point:   Wind: 3mph
Humidity: 86%   Direction: 140°SE
Pressure: 29.98"   Gusts: NA
Location:  39.71°N, 84.02°W
Report Text: KFFO 250958Z AUTO 14003KT 10SM CLR 08/06 A2998 RMK AO2 SLP155 T00790057
Loading
Personal Weather Stations






























Interactive Weather Map
Tropical Storm Tracking
New forecast layout! Learn more

10-Day Weather Forecast

Advertisements
Track Severe Weather on mobile